Hydro, Oklahoma
Current Conditions -  °F | °C
As of 3:55 AM on Sunday 23 Nov 2014 (Local Time) from KOJA Reporting Station
Haze Haze  
Wind Chill: 50°   Ceiling: 300
Heat Index: 50°   Visibility: 3mi
Dew Point: 50°   Wind: 14mph
Humidity: 100%   Direction: 180°S
Pressure: 29.49"   Gusts: 18mph
Location:  35.55°N, 98.58°W
Report Text: KOJA 230955Z AUTO 18012G16KT 3SM BR OVC003 10/10 A2949 RMK AO2
Loading
Personal Weather Stations






























Interactive Weather Map New forecast layout! Learn more

10-Day Weather Forecast

Advertisements
Track Severe Weather on mobile